Time;durP1;ratioP1;P1;durP2;ratioP2;P2;SDS_P1;SDS_P2;PMS_P1;PMS_P2;Temp;Humidity;BMP_temperature;BMP_pressure;BME280_temperature;BME280_humidity;BME280_pressure;Samples;Min_cycle;Max_cycle;Signal;HPM_P1;HPM_P2
2021/06/21 00:02:22;;;;;;;5.07;2.47;;;14.30;99.90;;;;;;5017284;28;20042;-68
2021/06/21 00:04:51;;;;;;;3.88;2.15;;;14.30;99.90;;;;;;5009686;28;20050;-68
2021/06/21 00:07:17;;;;;;;5.85;2.50;;;14.20;99.90;;;;;;5015870;28;20066;-67
2021/06/21 00:09:44;;;;;;;5.65;2.67;;;14.20;99.90;;;;;;5006271;28;20053;-67
2021/06/21 00:12:13;;;;;;;8.10;2.70;;;14.20;99.90;;;;;;5018452;28;20062;-67
2021/06/21 00:14:40;;;;;;;3.80;2.50;;;14.20;99.90;;;;;;5022572;28;20057;-68
2021/06/21 00:17:06;;;;;;;6.40;3.05;;;14.20;99.90;;;;;;5023004;28;20502;-68
2021/06/21 00:19:35;;;;;;;4.32;2.38;;;14.20;99.90;;;;;;5012206;28;20073;-68
2021/06/21 00:22:03;;;;;;;8.60;3.00;;;14.20;99.90;;;;;;5019986;28;20046;-69
2021/06/21 00:24:29;;;;;;;4.00;2.53;;;14.20;99.90;;;;;;5017941;28;20054;-67
2021/06/21 00:26:55;;;;;;;4.25;2.72;;;14.10;99.90;;;;;;5022254;28;20065;-68
2021/06/21 00:29:20;;;;;;;4.03;2.72;;;14.10;99.90;;;;;;5009806;28;20517;-68
2021/06/21 00:31:47;;;;;;;5.57;2.50;;;14.10;99.90;;;;;;5018264;28;20044;-67
2021/06/21 00:34:12;;;;;;;7.03;2.47;;;14.10;99.90;;;;;;5013158;28;20046;-67
2021/06/21 00:36:39;;;;;;;5.95;2.40;;;14.10;99.90;;;;;;5022579;28;20046;-67
2021/06/21 00:39:07;;;;;;;6.35;2.15;;;14.10;99.90;;;;;;5016234;28;20049;-67
2021/06/21 00:41:34;;;;;;;5.65;2.78;;;14.00;99.90;;;;;;5026040;28;20048;-67
2021/06/21 00:44:00;;;;;;;5.03;2.88;;;14.00;99.90;;;;;;5014664;28;20096;-67
2021/06/21 00:46:25;;;;;;;5.75;2.17;;;14.00;99.90;;;;;;5010934;28;20054;-67
2021/06/21 00:48:51;;;;;;;6.97;2.13;;;14.10;99.90;;;;;;5009294;28;20070;-67
2021/06/21 00:51:17;;;;;;;5.40;2.42;;;14.10;99.90;;;;;;5010870;28;20046;-67
2021/06/21 00:53:44;;;;;;;4.40;2.45;;;14.00;99.90;;;;;;5007629;28;20061;-67
2021/06/21 00:56:10;;;;;;;2.57;2.00;;;14.00;99.90;;;;;;5013473;28;20043;-67
2021/06/21 00:58:37;;;;;;;3.70;2.25;;;14.00;99.90;;;;;;5007435;28;20058;-68
2021/06/21 01:01:03;;;;;;;2.97;2.30;;;14.00;99.90;;;;;;5020145;28;20048;-68
2021/06/21 01:03:29;;;;;;;4.55;2.00;;;14.00;99.90;;;;;;5025886;28;20037;-68
2021/06/21 01:05:56;;;;;;;5.28;2.63;;;14.00;99.90;;;;;;5016071;28;20467;-67
2021/06/21 01:08:22;;;;;;;3.40;2.25;;;14.00;99.90;;;;;;5009675;28;20058;-67
2021/06/21 01:10:50;;;;;;;2.15;1.73;;;14.10;99.90;;;;;;5025840;28;20041;-67
2021/06/21 01:13:30;;;;;;;5.88;2.50;;;14.10;99.90;;;;;;5011655;28;20096;-67
2021/06/21 01:16:14;;;;;;;2.85;1.90;;;14.00;99.90;;;;;;5009022;28;20277;-67
2021/06/21 01:19:04;;;;;;;3.65;2.03;;;14.00;99.90;;;;;;5008864;28;20154;-67
2021/06/21 01:21:40;;;;;;;5.20;2.03;;;14.00;99.90;;;;;;5006680;28;20066;-67
2021/06/21 01:24:09;;;;;;;3.92;1.98;;;14.00;99.90;;;;;;5011231;28;20056;-67
2021/06/21 01:26:55;;;;;;;6.22;1.75;;;14.00;99.90;;;;;;5014435;28;20081;-67
2021/06/21 01:29:46;;;;;;;9.85;2.50;;;14.00;99.90;;;;;;5013246;28;20038;-67
2021/06/21 01:32:18;;;;;;;6.50;2.20;;;14.00;99.90;;;;;;5011271;28;20057;-67
2021/06/21 01:34:48;;;;;;;4.70;2.10;;;14.00;99.90;;;;;;5014518;28;20056;-68
2021/06/21 01:37:17;;;;;;;3.88;1.50;;;14.00;99.90;;;;;;5012396;28;20069;-67
2021/06/21 01:39:46;;;;;;;4.72;2.10;;;14.00;99.90;;;;;;5011182;28;20100;-67
2021/06/21 01:42:14;;;;;;;5.65;2.05;;;14.00;99.90;;;;;;5016395;28;20129;-67
2021/06/21 01:44:43;;;;;;;4.35;2.20;;;14.00;99.90;;;;;;5007795;28;20073;-67
2021/06/21 01:47:13;;;;;;;5.63;2.50;;;14.00;99.90;;;;;;5018005;28;20113;-67
2021/06/21 01:49:43;;;;;;;4.65;1.92;;;14.10;99.90;;;;;;5024129;28;20046;-67
2021/06/21 01:52:11;;;;;;;6.28;2.53;;;14.00;99.90;;;;;;5011898;28;20038;-67
2021/06/21 01:54:43;;;;;;;3.67;2.50;;;14.00;99.90;;;;;;5025012;28;20072;-67
2021/06/21 01:57:09;;;;;;;5.45;2.70;;;14.00;99.90;;;;;;5024319;28;20064;-67
2021/06/21 01:59:35;;;;;;;8.90;2.58;;;14.00;99.90;;;;;;5019022;28;20042;-67
2021/06/21 02:02:02;;;;;;;10.68;2.45;;;14.00;99.90;;;;;;5023910;28;20050;-67
2021/06/21 02:04:31;;;;;;;3.97;2.17;;;14.00;99.90;;;;;;5024900;28;20049;-67
2021/06/21 02:07:00;;;;;;;8.02;3.25;;;14.00;99.90;;;;;;5024996;28;20405;-67
2021/06/21 02:09:26;;;;;;;8.93;3.70;;;14.10;99.90;;;;;;5024309;28;20053;-68
2021/06/21 02:11:53;;;;;;;8.55;3.83;;;14.00;99.90;;;;;;5024557;28;20042;-67
2021/06/21 02:14:22;;;;;;;11.27;3.97;;;14.10;99.90;;;;;;5023682;28;20041;-67
2021/06/21 02:16:52;;;;;;;10.32;3.78;;;14.00;99.90;;;;;;5016835;28;20295;-67
2021/06/21 02:19:19;;;;;;;8.57;3.60;;;14.00;99.90;;;;;;5020835;28;20125;-67
2021/06/21 02:21:48;;;;;;;14.20;3.35;;;14.10;99.90;;;;;;5023422;28;20046;-67
2021/06/21 02:24:15;;;;;;;10.40;3.40;;;14.10;99.90;;;;;;5023981;28;20058;-67
2021/06/21 02:26:44;;;;;;;4.72;3.08;;;14.10;99.90;;;;;;5024450;28;20046;-67
2021/06/21 02:29:11;;;;;;;14.07;2.88;;;14.10;99.90;;;;;;5022310;28;20072;-67
2021/06/21 02:31:37;;;;;;;8.05;3.25;;;14.10;99.90;;;;;;5020976;28;20038;-67
2021/06/21 02:34:03;;;;;;;8.77;3.25;;;14.10;99.90;;;;;;5024036;28;20038;-67
2021/06/21 02:36:29;;;;;;;5.40;2.60;;;14.10;99.90;;;;;;5023419;28;20069;-67
2021/06/21 02:38:57;;;;;;;6.57;2.55;;;14.10;99.90;;;;;;5024291;28;20049;-68
2021/06/21 02:41:23;;;;;;;5.40;2.50;;;14.00;99.90;;;;;;5023993;28;20042;-67
2021/06/21 02:43:49;;;;;;;8.55;3.20;;;14.00;99.90;;;;;;5022661;28;20101;-69
2021/06/21 02:46:14;;;;;;;6.00;2.35;;;14.00;99.90;;;;;;5021617;28;20532;-67
2021/06/21 02:48:40;;;;;;;7.40;2.35;;;14.00;99.90;;;;;;5023510;28;20073;-67
2021/06/21 02:51:10;;;;;;;10.98;3.13;;;14.00;99.90;;;;;;5021378;28;20080;-67
2021/06/21 02:53:57;;;;;;;10.27;3.05;;;14.00;99.90;;;;;;5023529;28;20042;-66
2021/06/21 02:56:49;;;;;;;10.13;2.88;;;14.00;99.90;;;;;;5018889;28;20081;-67
2021/06/21 02:59:19;;;;;;;8.40;2.38;;;14.00;99.90;;;;;;5016329;28;20054;-67
2021/06/21 03:01:52;;;;;;;18.85;2.78;;;14.00;99.90;;;;;;5016395;28;20050;-66
2021/06/21 03:04:21;;;;;;;6.85;2.88;;;13.90;99.90;;;;;;5018205;28;20061;-68
2021/06/21 03:06:49;;;;;;;9.68;3.20;;;13.90;99.90;;;;;;5018442;28;20041;-70
2021/06/21 03:09:18;;;;;;;7.57;2.75;;;13.80;99.90;;;;;;5019510;28;20052;-70
2021/06/21 03:11:48;;;;;;;7.95;2.75;;;13.80;99.90;;;;;;5023554;28;20042;-70
2021/06/21 03:14:14;;;;;;;9.40;2.60;;;13.70;99.90;;;;;;5023214;28;20042;-69
2021/06/21 03:16:42;;;;;;;6.53;2.88;;;13.70;99.90;;;;;;5023648;28;20042;-67
2021/06/21 03:19:11;;;;;;;;;;;13.60;99.90;;;;;;5023390;28;20137;-69
2021/06/21 03:21:36;;;;;;;14.95;3.83;;;13.60;99.90;;;;;;5023549;28;20008;-69
2021/06/21 03:24:03;;;;;;;13.18;4.55;;;13.60;99.90;;;;;;5023145;28;20072;-69
2021/06/21 03:26:30;;;;;;;10.98;2.90;;;13.60;99.90;;;;;;5009521;28;20077;-69
2021/06/21 03:28:57;;;;;;;8.10;3.03;;;13.50;99.90;;;;;;5022835;28;20068;-70
2021/06/21 03:31:24;;;;;;;10.50;3.33;;;13.50;99.90;;;;;;5022669;28;20049;-71
2021/06/21 03:33:50;;;;;;;9.63;3.03;;;13.50;99.90;;;;;;5023209;28;20057;-71
2021/06/21 03:36:16;;;;;;;6.78;3.03;;;13.40;99.90;;;;;;5022862;28;20041;-72
2021/06/21 03:38:43;;;;;;;8.10;3.47;;;13.40;99.90;;;;;;5020979;28;20149;-72
2021/06/21 03:41:09;;;;;;;10.02;3.53;;;13.40;99.90;;;;;;5023495;28;20498;-70
2021/06/21 03:43:35;;;;;;;9.70;3.42;;;13.40;99.90;;;;;;5023697;28;20098;-70
2021/06/21 03:46:04;;;;;;;11.70;4.60;;;13.30;99.90;;;;;;5022303;28;20065;-70
2021/06/21 03:48:36;;;;;;;10.13;3.95;;;13.30;99.90;;;;;;5019345;28;20446;-71
2021/06/21 03:51:02;;;;;;;11.30;3.20;;;13.30;99.90;;;;;;5013121;28;20130;-69
2021/06/21 03:53:28;;;;;;;7.40;3.60;;;13.40;99.90;;;;;;5020369;28;20069;-70
2021/06/21 03:55:54;;;;;;;8.48;4.10;;;13.40;99.90;;;;;;5022684;28;20104;-69
2021/06/21 03:58:21;;;;;;;8.68;3.40;;;13.40;99.90;;;;;;5021358;28;20133;-69
2021/06/21 04:00:47;;;;;;;8.55;3.78;;;13.30;99.90;;;;;;5020642;28;20038;-69
2021/06/21 04:03:14;;;;;;;8.02;3.50;;;13.30;99.90;;;;;;5023021;28;20046;-69
2021/06/21 04:05:42;;;;;;;9.85;3.55;;;13.40;99.90;;;;;;5022602;28;20054;-70
2021/06/21 04:08:13;;;;;;;11.15;4.25;;;13.40;99.90;;;;;;5021390;28;20053;-71
2021/06/21 04:10:40;;;;;;;11.13;5.22;;;13.40;99.90;;;;;;5018795;28;20050;-69
2021/06/21 04:13:07;;;;;;;8.70;4.88;;;13.40;99.90;;;;;;5022764;28;20045;-69
2021/06/21 04:15:33;;;;;;;13.85;4.97;;;13.30;99.90;;;;;;5022565;28;20072;-70
2021/06/21 04:18:03;;;;;;;13.52;4.70;;;13.30;99.90;;;;;;5017986;28;20050;-69
2021/06/21 04:20:30;;;;;;;10.27;4.85;;;13.40;99.90;;;;;;5015281;28;20042;-69
2021/06/21 04:22:57;;;;;;;12.05;5.20;;;13.40;99.90;;;;;;5022539;28;20050;-69
2021/06/21 04:25:24;;;;;;;6.10;4.20;;;13.40;99.90;;;;;;5022818;28;20046;-69
2021/06/21 04:27:51;;;;;;;10.80;4.93;;;13.40;99.90;;;;;;5021995;28;20117;-69
2021/06/21 04:30:19;;;;;;;9.13;4.53;;;13.30;99.90;;;;;;5022161;28;20110;-69
2021/06/21 04:32:46;;;;;;;14.70;5.53;;;13.30;99.90;;;;;;5022405;28;20038;-69
2021/06/21 04:35:18;;;;;;;19.33;6.20;;;13.30;99.90;;;;;;5022168;28;20121;-70
2021/06/21 04:37:45;;;;;;;11.20;5.70;;;13.30;99.90;;;;;;5022372;28;20474;-71
2021/06/21 04:40:13;;;;;;;9.27;5.55;;;13.20;99.90;;;;;;5022973;28;20057;-69
2021/06/21 04:42:40;;;;;;;10.30;5.72;;;13.00;99.90;;;;;;5022317;28;20064;-69
2021/06/21 04:45:10;;;;;;;11.77;6.30;;;13.00;99.90;;;;;;5021930;28;20112;-71
2021/06/21 04:47:36;;;;;;;10.07;6.15;;;12.80;99.90;;;;;;5021980;28;20343;-72
2021/06/21 04:50:04;;;;;;;13.38;7.28;;;12.80;99.90;;;;;;5021943;28;20525;-71
2021/06/21 04:52:35;;;;;;;13.88;7.53;;;12.80;99.90;;;;;;5022666;28;20041;-71
2021/06/21 04:55:01;;;;;;;13.32;5.82;;;12.80;99.90;;;;;;5022241;28;20414;-72
2021/06/21 04:57:33;;;;;;;19.05;7.85;;;12.70;99.90;;;;;;5019332;28;20057;-71
2021/06/21 04:59:59;;;;;;;;;;;12.60;99.90;;;;;;5023098;28;20050;-73
2021/06/21 05:02:25;;;;;;;15.30;6.60;;;12.70;99.90;;;;;;5021909;28;19928;-70
2021/06/21 05:04:51;;;;;;;20.40;6.47;;;12.70;99.90;;;;;;5022932;28;20038;-71
2021/06/21 05:07:17;;;;;;;15.73;7.60;;;12.70;99.90;;;;;;5015647;28;20038;-70
2021/06/21 05:09:43;;;;;;;12.48;6.63;;;12.70;99.90;;;;;;5025121;28;20046;-69
2021/06/21 05:12:12;;;;;;;13.15;6.20;;;12.70;99.90;;;;;;5016249;28;20049;-69
2021/06/21 05:14:38;;;;;;;14.07;7.05;;;12.70;99.90;;;;;;5021367;28;20065;-69
2021/06/21 05:17:08;;;;;;;16.60;6.45;;;12.70;99.90;;;;;;5018807;28;20053;-70
2021/06/21 05:19:35;;;;;;;12.85;6.38;;;12.60;99.90;;;;;;5016800;28;20042;-70
2021/06/21 05:22:02;;;;;;;17.13;6.88;;;12.60;99.90;;;;;;5009873;28;20077;-70
2021/06/21 05:24:30;;;;;;;15.77;4.95;;;12.70;99.90;;;;;;5012877;28;20050;-70
2021/06/21 05:26:56;;;;;;;16.40;5.90;;;12.70;99.90;;;;;;5020565;28;20432;-71
2021/06/21 05:29:22;;;;;;;12.90;5.65;;;12.70;99.90;;;;;;5021540;28;20048;-71
2021/06/21 05:31:48;;;;;;;12.27;5.90;;;12.70;99.90;;;;;;5012326;28;20128;-71
2021/06/21 05:34:14;;;;;;;10.75;5.43;;;12.70;99.90;;;;;;5021667;28;20057;-72
2021/06/21 05:36:40;;;;;;;14.95;5.65;;;12.80;99.90;;;;;;5020813;28;20046;-71
2021/06/21 05:39:07;;;;;;;10.95;5.35;;;12.80;99.90;;;;;;5021210;28;20045;-72
2021/06/21 05:41:32;;;;;;;10.20;4.97;;;12.80;99.90;;;;;;5018502;28;20065;-72
2021/06/21 05:43:58;;;;;;;14.32;5.63;;;12.80;99.90;;;;;;5015421;28;20058;-72
2021/06/21 05:46:24;;;;;;;10.38;4.78;;;12.90;99.90;;;;;;5018396;28;20061;-72
2021/06/21 05:48:50;;;;;;;7.95;4.18;;;12.90;99.90;;;;;;5022357;28;20038;-72
2021/06/21 05:51:15;;;;;;;17.08;4.47;;;12.90;99.90;;;;;;5020653;28;20037;-71
2021/06/21 05:53:41;;;;;;;12.30;5.22;;;13.00;99.90;;;;;;5018417;28;20050;-71
2021/06/21 05:56:07;;;;;;;10.45;4.10;;;13.00;99.90;;;;;;5018861;28;20046;-72
2021/06/21 05:58:33;;;;;;;10.18;4.65;;;13.00;99.90;;;;;;5013110;28;20034;-72
2021/06/21 06:00:59;;;;;;;11.85;3.58;;;13.10;99.90;;;;;;5017040;28;20054;-72
2021/06/21 06:03:24;;;;;;;11.98;5.43;;;13.10;99.90;;;;;;5013439;28;20463;-72
2021/06/21 06:05:50;;;;;;;19.13;5.90;;;13.10;99.90;;;;;;5018888;28;20045;-70
2021/06/21 06:08:17;;;;;;;16.17;4.65;;;13.10;99.90;;;;;;5020666;28;20042;-69
2021/06/21 06:10:43;;;;;;;11.70;4.18;;;13.10;99.90;;;;;;5018607;28;20052;-71
2021/06/21 06:13:09;;;;;;;13.32;4.65;;;13.10;99.90;;;;;;5017965;28;20038;-71
2021/06/21 06:15:34;;;;;;;11.82;4.85;;;13.10;99.90;;;;;;5009304;28;20046;-74
2021/06/21 06:18:00;;;;;;;18.02;5.70;;;13.10;99.90;;;;;;5015497;28;20046;-77
2021/06/21 06:20:26;;;;;;;16.40;4.75;;;13.10;99.90;;;;;;5023659;28;20101;-74
2021/06/21 06:22:52;;;;;;;8.18;3.95;;;13.10;99.90;;;;;;5020497;28;20053;-74
2021/06/21 06:25:19;;;;;;;12.55;5.38;;;13.20;99.90;;;;;;5015392;28;20054;-74
2021/06/21 06:27:46;;;;;;;11.70;4.70;;;13.20;99.90;;;;;;5013152;28;20042;-74
2021/06/21 06:30:13;;;;;;;14.02;4.45;;;13.20;99.90;;;;;;5023584;28;20061;-75
2021/06/21 06:32:40;;;;;;;11.80;3.57;;;13.20;99.90;;;;;;5020148;28;20049;-75
2021/06/21 06:35:08;;;;;;;16.75;5.55;;;13.20;99.90;;;;;;5008329;28;21045;-76
2021/06/21 06:37:34;;;;;;;8.32;3.45;;;13.30;99.90;;;;;;5016790;28;20038;-75
2021/06/21 06:40:00;;;;;;;12.93;4.40;;;13.30;99.90;;;;;;5014637;28;20133;-75
2021/06/21 06:42:26;;;;;;;10.35;4.10;;;13.30;99.90;;;;;;5012099;28;20076;-75
2021/06/21 06:44:52;;;;;;;15.65;5.25;;;13.30;99.90;;;;;;5009610;28;20522;-75
2021/06/21 06:47:18;;;;;;;10.50;4.03;;;13.40;99.90;;;;;;5007362;28;20097;-74
2021/06/21 06:49:45;;;;;;;9.48;3.50;;;13.40;99.90;;;;;;5022820;28;20406;-75
2021/06/21 06:52:12;;;;;;;11.70;4.30;;;13.40;99.90;;;;;;5008269;28;20042;-73
2021/06/21 06:57:11;;;;;;;7.78;3.20;;;13.50;99.90;;;;;;5022992;28;20033;-71
2021/06/21 06:59:39;;;;;;;11.25;4.00;;;13.50;99.90;;;;;;5021803;28;20565;-72
2021/06/21 07:02:10;;;;;;;10.80;4.15;;;13.50;99.90;;;;;;5015952;28;20120;-72
2021/06/21 07:04:37;;;;;;;12.20;3.22;;;13.50;99.90;;;;;;5018635;28;20042;-70
2021/06/21 07:07:04;;;;;;;9.60;2.85;;;13.50;99.90;;;;;;5013844;28;20037;-71
2021/06/21 07:09:31;;;;;;;18.45;4.53;;;13.50;99.90;;;;;;5008745;28;20050;-70
2021/06/21 07:11:58;;;;;;;16.42;4.28;;;13.60;99.90;;;;;;5020508;28;20046;-71
2021/06/21 07:14:24;;;;;;;10.82;3.85;;;13.60;99.90;;;;;;5019082;28;20037;-72
2021/06/21 07:16:50;;;;;;;3.85;2.38;;;13.60;99.90;;;;;;5013224;28;20498;-72
2021/06/21 07:19:18;;;;;;;13.18;4.28;;;13.60;99.90;;;;;;5006009;28;20070;-72
2021/06/21 07:21:44;;;;;;;9.52;3.40;;;13.60;99.90;;;;;;5013094;28;20068;-71
2021/06/21 07:24:11;;;;;;;8.00;2.75;;;13.60;99.90;;;;;;5009388;28;20501;-71
2021/06/21 07:26:38;;;;;;;10.68;3.15;;;13.60;99.90;;;;;;5016610;28;20445;-71
2021/06/21 07:29:05;;;;;;;7.97;2.65;;;13.60;99.90;;;;;;5005717;28;20046;-72
2021/06/21 07:31:32;;;;;;;9.48;3.28;;;13.60;99.90;;;;;;5017541;28;20066;-71
2021/06/21 07:33:58;;;;;;;8.10;2.87;;;13.70;99.90;;;;;;5017163;28;20042;-71
2021/06/21 07:36:24;;;;;;;7.07;3.10;;;13.60;99.90;;;;;;5015376;28;20076;-69
2021/06/21 07:38:50;;;;;;;8.85;3.28;;;13.70;99.90;;;;;;5012768;28;20046;-70
2021/06/21 07:41:16;;;;;;;8.90;3.67;;;13.70;99.90;;;;;;5013313;28;20046;-69
2021/06/21 07:43:43;;;;;;;9.93;3.08;;;13.70;99.90;;;;;;5010107;28;20057;-70
2021/06/21 07:46:09;;;;;;;6.65;3.05;;;13.60;99.90;;;;;;5021030;28;20069;-72
2021/06/21 07:48:37;;;;;;;12.10;3.95;;;13.60;99.90;;;;;;5010693;28;20050;-70
2021/06/21 07:51:05;;;;;;;7.93;2.78;;;13.70;99.90;;;;;;5014026;28;20073;-70
2021/06/21 07:53:31;;;;;;;8.77;3.03;;;13.60;99.90;;;;;;5017078;28;20052;-71
2021/06/21 07:55:57;;;;;;;10.52;3.63;;;13.60;99.90;;;;;;5012581;28;20038;-70
2021/06/21 07:58:23;;;;;;;9.35;4.55;;;13.60;99.90;;;;;;5022628;28;20413;-69
2021/06/21 08:00:48;;;;;;;16.95;3.78;;;13.60;99.90;;;;;;5021217;28;20041;-70
2021/06/21 08:03:14;;;;;;;11.50;3.53;;;13.60;99.90;;;;;;5022725;28;20105;-70
2021/06/21 08:05:42;;;;;;;12.13;4.45;;;13.50;99.90;;;;;;5008123;28;20046;-69
2021/06/21 08:08:09;;;;;;;14.18;2.95;;;13.70;99.90;;;;;;5014603;28;20492;-70
2021/06/21 08:10:35;;;;;;;16.70;3.40;;;13.60;99.90;;;;;;5013006;28;20487;-69
2021/06/21 08:13:01;;;;;;;12.57;3.28;;;13.60;99.90;;;;;;5017943;28;20060;-69
2021/06/21 08:15:27;;;;;;;9.32;3.38;;;13.60;99.90;;;;;;5017355;28;20038;-70
2021/06/21 08:17:53;;;;;;;7.38;3.25;;;13.60;99.90;;;;;;5017577;28;20180;-70
2021/06/21 08:20:19;;;;;;;10.85;3.33;;;13.60;99.90;;;;;;5020725;28;20037;-70
2021/06/21 08:22:45;;;;;;;10.52;3.15;;;13.60;99.90;;;;;;5021652;28;21048;-70
2021/06/21 08:25:11;;;;;;;11.48;4.03;;;13.60;99.90;;;;;;5013583;28;20050;-71
2021/06/21 08:27:37;;;;;;;14.18;3.97;;;13.60;99.90;;;;;;5014669;28;20053;-71
2021/06/21 08:30:06;;;;;;;15.27;4.50;;;13.60;99.90;;;;;;5017583;28;20046;-71
2021/06/21 08:32:32;;;;;;;10.02;4.18;;;13.60;99.90;;;;;;5015802;28;20057;-70
2021/06/21 08:34:58;;;;;;;9.90;3.63;;;13.60;99.90;;;;;;5022414;28;20054;-71
2021/06/21 08:37:24;;;;;;;15.27;4.20;;;13.60;99.90;;;;;;5014189;28;20410;-72
2021/06/21 08:39:52;;;;;;;5.35;2.65;;;13.50;99.90;;;;;;5014574;28;20046;-74
2021/06/21 08:42:19;;;;;;;9.05;3.97;;;13.40;99.90;;;;;;5023836;28;20061;-71
2021/06/21 08:44:45;;;;;;;13.27;3.33;;;13.40;99.90;;;;;;5023049;28;20050;-71
2021/06/21 08:47:13;;;;;;;10.80;3.47;;;13.30;99.90;;;;;;5022591;28;20072;-72
2021/06/21 08:49:45;;;;;;;17.77;3.70;;;13.30;99.90;;;;;;5023145;28;20042;-72
2021/06/21 08:52:12;;;;;;;8.77;3.97;;;13.30;99.90;;;;;;5017226;28;20071;-73
2021/06/21 08:54:38;;;;;;;12.98;3.05;;;13.30;99.90;;;;;;5022488;28;20050;-72
2021/06/21 08:57:05;;;;;;;10.25;2.47;;;13.20;99.90;;;;;;5020510;28;20101;-73
2021/06/21 08:59:31;;;;;;;15.77;4.15;;;13.20;99.90;;;;;;5022144;28;20079;-73
2021/06/21 09:01:57;;;;;;;7.00;2.75;;;13.20;99.90;;;;;;5022389;28;20142;-73
2021/06/21 09:04:24;;;;;;;11.07;2.70;;;13.20;99.90;;;;;;5022943;28;20103;-73
2021/06/21 09:06:50;;;;;;;7.07;2.70;;;13.20;99.90;;;;;;5023613;28;20121;-73
2021/06/21 09:09:16;;;;;;;4.78;1.90;;;13.20;99.90;;;;;;5017683;28;20501;-74
2021/06/21 09:11:44;;;;;;;7.82;2.85;;;13.20;99.90;;;;;;5024779;28;20169;-73
2021/06/21 09:14:25;;;;;;;10.13;2.60;;;13.20;99.90;;;;;;5024039;28;20101;-75
2021/06/21 09:16:58;;;;;;;7.25;2.65;;;13.20;99.90;;;;;;5021938;28;20058;-72
2021/06/21 09:19:24;;;;;;;4.95;1.77;;;13.10;99.90;;;;;;5022501;28;20050;-72
2021/06/21 09:21:50;;;;;;;4.88;1.60;;;13.10;99.90;;;;;;5016637;28;20101;-73
2021/06/21 09:24:22;;;;;;;6.32;2.63;;;13.10;99.90;;;;;;5024384;28;20104;-70
2021/06/21 09:26:54;;;;;;;12.35;2.78;;;13.00;99.90;;;;;;5018188;28;20073;-70
2021/06/21 09:29:36;;;;;;;8.30;1.58;;;13.00;99.90;;;;;;5022354;28;20046;-68
2021/06/21 09:32:03;;;;;;;8.20;2.90;;;13.00;99.90;;;;;;5018623;28;20061;-68
2021/06/21 09:34:30;;;;;;;7.43;2.60;;;12.90;99.90;;;;;;5012313;28;20081;-69
2021/06/21 09:37:16;;;;;;;8.95;3.63;;;12.90;99.90;;;;;;5012800;28;20100;-69
2021/06/21 09:39:45;;;;;;;4.78;2.60;;;12.90;99.90;;;;;;5012929;28;20045;-70
2021/06/21 09:42:23;;;;;;;10.98;3.53;;;12.90;99.90;;;;;;5019763;28;20501;-69
2021/06/21 09:45:00;;;;;;;11.10;3.03;;;12.90;99.90;;;;;;5016692;28;20049;-69
2021/06/21 09:47:37;;;;;;;13.43;3.60;;;12.80;99.90;;;;;;5014788;28;20077;-68
2021/06/21 09:50:18;;;;;;;16.67;3.13;;;12.80;99.90;;;;;;5014698;28;20042;-68
2021/06/21 09:53:02;;;;;;;8.30;2.88;;;12.80;99.90;;;;;;5011358;28;20054;-68
2021/06/21 09:55:29;;;;;;;11.07;3.65;;;12.80;99.90;;;;;;5010353;28;20057;-67
2021/06/21 09:58:22;;;;;;;11.63;3.63;;;12.90;99.90;;;;;;5007096;28;20038;-68
2021/06/21 10:00:49;;;;;;;8.10;2.75;;;12.90;99.90;;;;;;5009751;28;20061;-68
2021/06/21 10:03:25;;;;;;;13.32;3.60;;;12.90;99.90;;;;;;5007794;28;20041;-69
2021/06/21 10:06:00;;;;;;;11.00;3.13;;;12.90;99.90;;;;;;5009314;28;20034;-69
2021/06/21 10:08:45;;;;;;;11.18;2.88;;;13.00;99.90;;;;;;5006526;28;20065;-69
2021/06/21 10:11:36;;;;;;;6.07;2.08;;;13.00;99.90;;;;;;5013669;28;20473;-68
2021/06/21 10:14:07;;;;;;;11.73;3.35;;;12.90;99.90;;;;;;5006002;28;20057;-68
2021/06/21 10:16:34;;;;;;;5.25;1.98;;;12.90;99.90;;;;;;5007584;28;20054;-69
2021/06/21 10:19:00;;;;;;;8.73;2.25;;;12.80;99.90;;;;;;5006989;28;20088;-70
2021/06/21 10:21:27;;;;;;;9.38;2.20;;;12.80;99.90;;;;;;5011916;28;20442;-70
2021/06/21 10:23:53;;;;;;;8.82;2.22;;;12.80;99.90;;;;;;5010977;28;20049;-69
2021/06/21 10:26:20;;;;;;;9.15;2.90;;;12.80;99.90;;;;;;5007803;28;20058;-69
2021/06/21 10:28:48;;;;;;;8.65;3.15;;;12.90;99.90;;;;;;5008800;28;20415;-69
2021/06/21 10:31:14;;;;;;;;;;;13.00;99.90;;;;;;5013310;28;20141;-69
2021/06/21 10:33:41;;;;;;;7.30;3.13;;;12.90;99.90;;;;;;5019949;28;19937;-69
2021/06/21 10:36:08;;;;;;;14.30;2.40;;;12.90;99.90;;;;;;5008598;28;20047;-69
2021/06/21 10:38:34;;;;;;;9.25;2.35;;;13.00;99.90;;;;;;5007591;28;20046;-68
2021/06/21 10:41:03;;;;;;;10.38;3.17;;;13.00;99.90;;;;;;5009828;28;20054;-69
2021/06/21 10:43:44;;;;;;;14.80;2.80;;;13.00;99.90;;;;;;5019592;28;20117;-68
2021/06/21 10:46:31;;;;;;;10.20;2.70;;;13.00;99.90;;;;;;5012476;28;20069;-68
2021/06/21 10:48:57;;;;;;;9.25;2.42;;;13.00;99.90;;;;;;5012197;28;20867;-70
2021/06/21 10:51:49;;;;;;;14.73;4.00;;;13.00;99.90;;;;;;5011832;28;20395;-69
2021/06/21 10:54:22;;;;;;;9.35;2.50;;;13.10;99.90;;;;;;5014514;28;20049;-69
2021/06/21 10:56:53;;;;;;;18.55;3.55;;;13.00;99.90;;;;;;5016888;28;20054;-69
2021/06/21 10:59:21;;;;;;;10.38;3.00;;;13.00;99.90;;;;;;5011513;28;20077;-69
2021/06/21 11:01:58;;;;;;;7.97;2.28;;;13.00;99.90;;;;;;5007602;28;20056;-70
2021/06/21 11:04:37;;;;;;;12.48;2.85;;;13.00;99.90;;;;;;5003842;28;20061;-70
2021/06/21 11:07:15;;;;;;;11.93;3.05;;;13.00;99.90;;;;;;5012346;28;20081;-70
2021/06/21 11:10:01;;;;;;;8.32;2.53;;;13.00;99.90;;;;;;5008153;28;20097;-69
2021/06/21 11:12:30;;;;;;;10.55;2.85;;;13.00;99.90;;;;;;5010405;28;20178;-70
2021/06/21 11:15:14;;;;;;;9.65;2.83;;;13.00;99.90;;;;;;5011769;28;20343;-71
2021/06/21 11:17:45;;;;;;;6.80;2.35;;;13.10;99.90;;;;;;5015507;28;20115;-70
2021/06/21 11:20:40;;;;;;;8.30;2.97;;;13.10;99.90;;;;;;5007633;28;20046;-68
2021/06/21 11:23:26;;;;;;;8.48;2.95;;;13.10;99.90;;;;;;4986807;28;20109;-69
2021/06/21 11:25:52;;;;;;;10.52;2.80;;;13.10;99.90;;;;;;5017045;28;20113;-69
2021/06/21 11:28:41;;;;;;;12.18;3.70;;;13.10;99.90;;;;;;5016316;28;20038;-70
2021/06/21 11:31:19;;;;;;;10.18;2.70;;;13.10;99.90;;;;;;5007669;28;20168;-69
2021/06/21 11:34:15;;;;;;;;;;;13.10;99.90;;;;;;5018249;28;20045;-69
2021/06/21 11:36:48;;;;;;;8.55;2.72;;;13.20;99.90;;;;;;5009327;28;20032;-68
2021/06/21 11:39:25;;;;;;;7.70;2.25;;;13.10;99.90;;;;;;5013875;28;20054;-72
2021/06/21 11:41:59;;;;;;;8.52;2.75;;;13.10;99.90;;;;;;5014355;28;20061;-72
2021/06/21 11:44:40;;;;;;;13.68;2.95;;;13.10;99.90;;;;;;5005700;28;20081;-72
2021/06/21 11:47:14;;;;;;;5.10;2.20;;;13.00;99.90;;;;;;5007418;28;20058;-65
2021/06/21 11:49:44;;;;;;;11.18;3.70;;;13.10;99.90;;;;;;5007545;28;20313;-66
2021/06/21 11:52:15;;;;;;;10.35;2.85;;;13.10;99.90;;;;;;5009266;28;20103;-66
2021/06/21 11:54:44;;;;;;;11.35;3.15;;;13.10;99.90;;;;;;5006061;28;20066;-69
2021/06/21 11:57:11;;;;;;;9.65;2.70;;;13.10;99.90;;;;;;4992921;28;20477;-64
2021/06/21 11:59:44;;;;;;;9.83;2.27;;;13.10;99.90;;;;;;5010341;28;20060;-63
2021/06/21 12:02:16;;;;;;;9.85;2.78;;;13.10;99.90;;;;;;5012730;28;20053;-63
2021/06/21 12:04:43;;;;;;;11.82;3.08;;;13.10;99.90;;;;;;5017721;28;20046;-64
2021/06/21 12:07:27;;;;;;;16.92;3.13;;;13.20;99.90;;;;;;5014412;28;20573;-63
2021/06/21 12:09:54;;;;;;;15.23;3.22;;;13.20;99.90;;;;;;5006160;28;20096;-63
2021/06/21 12:12:22;;;;;;;11.27;2.90;;;13.20;99.90;;;;;;5013840;28;20070;-63
2021/06/21 12:14:49;;;;;;;10.95;3.60;;;13.30;99.90;;;;;;5015934;28;20050;-63
2021/06/21 12:17:21;;;;;;;11.45;3.42;;;13.30;99.90;;;;;;5015699;28;20114;-63
2021/06/21 12:20:08;;;;;;;10.57;2.88;;;13.20;99.90;;;;;;5019644;28;20042;-63
2021/06/21 12:22:35;;;;;;;16.92;3.10;;;13.20;99.90;;;;;;5015232;28;20054;-64
2021/06/21 12:25:03;;;;;;;8.35;2.35;;;13.20;99.90;;;;;;5017344;28;20050;-64
2021/06/21 12:27:30;;;;;;;10.20;2.95;;;13.10;99.90;;;;;;5020728;28;20068;-64
2021/06/21 12:29:56;;;;;;;13.10;3.42;;;13.10;99.90;;;;;;5014971;28;20050;-66
2021/06/21 12:32:29;;;;;;;9.15;3.63;;;13.10;99.90;;;;;;5007759;28;20061;-64
2021/06/21 12:35:00;;;;;;;10.13;3.65;;;13.10;99.90;;;;;;5012056;28;20038;-62
2021/06/21 12:37:38;;;;;;;15.70;4.35;;;13.30;99.90;;;;;;5013263;28;20179;-62
2021/06/21 12:40:17;;;;;;;14.43;4.53;;;13.30;99.90;;;;;;5016442;28;20502;-63
2021/06/21 12:42:44;;;;;;;12.73;4.18;;;13.30;99.90;;;;;;5012144;28;20077;-66
2021/06/21 12:45:23;;;;;;;17.55;4.45;;;13.30;99.90;;;;;;5009014;28;20133;-67
2021/06/21 12:47:54;;;;;;;10.48;3.42;;;13.40;99.90;;;;;;5016923;28;20095;-63
2021/06/21 12:50:22;;;;;;;10.38;3.38;;;13.40;99.90;;;;;;5015254;28;20034;-64
2021/06/21 12:52:50;;;;;;;9.90;3.65;;;13.40;99.90;;;;;;5015237;28;20069;-62
2021/06/21 12:55:22;;;;;;;10.77;3.13;;;13.50;99.90;;;;;;5011922;28;20516;-65
2021/06/21 12:57:59;;;;;;;8.23;2.95;;;13.50;99.90;;;;;;5008505;28;20045;-66